Terminal Aerodrome Forecast
Issued by NWS Corpus Christi, TX

Home | Current Version | Previous Version | Text Only | Print | Product List | Glossary On
Versions: 1 2 3 4 5 6 7 8 9 10 11 12 13 14 15 16 17
394
FTUS44 KCRP 261126
TAFCRP
TAF
KCRP 261126Z 2612/2712 08005KT P6SM FEW025 BKN050
      TEMPO 2612/2614 BKN025
     FM261600 15015G20KT P6SM VCSH BKN035
     FM270100 16011KT P6SM BKN050
     FM270500 16009KT 6SM BR BKN013=

USA.gov is the U.S. government's official web portal to all federal, state and local government web resources and services.